LFPM 181530Z AUTO 32008KT 290V360 CAVOK 27/16 Q1013

ElémentsDécodage
LFPM Station météo située sur l'aérodrome de MELUN Villaroche
181530Z émis le 18 du mois à 15h30 UTC
AUTO Bulletin édité par un automate
32008KT vent du 320°, 08 noeuds
290V360 vent de direction variable entre 290° et 360°
CAVOK Ceiling And Visibility OK
- Visibilité de 10 Km ou plus
- Pas de nuage au-dessous de 1500m ou au-dessous de l'altitude minimale du secteur la plus élevée (si>1500m) et absence de CB
- pas de temps présent significatif
27/16 température 27°C, point de rosée 16°C
 soit une humidité relative de 51%
Q1013 la pression au niveau de la mer (QNH) est de 1013 hPa